sensor_id;sensor_type;location;lat;lon;timestamp;temperature;humidity
25450;DHT22;13371;52.080;5.624;2024-03-25T00:00:14;8.40;99.90
25450;DHT22;13371;52.080;5.624;2024-03-25T00:02:41;8.40;99.90
25450;DHT22;13371;52.080;5.624;2024-03-25T00:05:08;8.30;99.90
25450;DHT22;13371;52.080;5.624;2024-03-25T00:07:37;8.30;99.90
25450;DHT22;13371;52.080;5.624;2024-03-25T00:10:04;8.20;99.90
25450;DHT22;13371;52.080;5.624;2024-03-25T00:12:31;8.40;99.90
25450;DHT22;13371;52.080;5.624;2024-03-25T00:14:57;8.50;99.90
25450;DHT22;13371;52.080;5.624;2024-03-25T00:17:23;8.40;99.90
25450;DHT22;13371;52.080;5.624;2024-03-25T00:19:48;8.40;99.90
25450;DHT22;13371;52.080;5.624;2024-03-25T00:22:18;8.50;99.90
25450;DHT22;13371;52.080;5.624;2024-03-25T00:24:47;8.40;99.90
25450;DHT22;13371;52.080;5.624;2024-03-25T00:27:13;8.40;99.90
25450;DHT22;13371;52.080;5.624;2024-03-25T00:29:39;8.30;99.90
25450;DHT22;13371;52.080;5.624;2024-03-25T00:32:05;8.30;99.90
25450;DHT22;13371;52.080;5.624;2024-03-25T00:34:31;8.30;99.90
25450;DHT22;13371;52.080;5.624;2024-03-25T00:36:57;8.30;99.90
25450;DHT22;13371;52.080;5.624;2024-03-25T00:39:23;8.30;99.90
25450;DHT22;13371;52.080;5.624;2024-03-25T00:41:49;8.20;99.90
25450;DHT22;13371;52.080;5.624;2024-03-25T00:44:14;8.30;99.90
25450;DHT22;13371;52.080;5.624;2024-03-25T00:46:40;8.40;99.90
25450;DHT22;13371;52.080;5.624;2024-03-25T00:49:07;8.40;99.90
25450;DHT22;13371;52.080;5.624;2024-03-25T00:51:33;8.50;99.90
25450;DHT22;13371;52.080;5.624;2024-03-25T00:53:58;8.50;99.90
25450;DHT22;13371;52.080;5.624;2024-03-25T00:56:24;8.60;99.90
25450;DHT22;13371;52.080;5.624;2024-03-25T00:58:49;8.50;99.90
25450;DHT22;13371;52.080;5.624;2024-03-25T01:01:15;8.30;99.90
25450;DHT22;13371;52.080;5.624;2024-03-25T01:03:41;8.50;99.90
25450;DHT22;13371;52.080;5.624;2024-03-25T01:06:06;8.30;99.90
25450;DHT22;13371;52.080;5.624;2024-03-25T01:08:32;8.40;99.90
25450;DHT22;13371;52.080;5.624;2024-03-25T01:10:57;8.50;99.90
25450;DHT22;13371;52.080;5.624;2024-03-25T01:13:23;8.40;99.90
25450;DHT22;13371;52.080;5.624;2024-03-25T01:15:48;8.30;99.90
25450;DHT22;13371;52.080;5.624;2024-03-25T01:18:14;8.40;99.90
25450;DHT22;13371;52.080;5.624;2024-03-25T01:20:39;8.20;99.90
25450;DHT22;13371;52.080;5.624;2024-03-25T01:23:05;8.20;99.90
25450;DHT22;13371;52.080;5.624;2024-03-25T01:25:31;8.20;99.90
25450;DHT22;13371;52.080;5.624;2024-03-25T01:27:56;8.10;99.90
25450;DHT22;13371;52.080;5.624;2024-03-25T01:30:22;7.90;99.90
25450;DHT22;13371;52.080;5.624;2024-03-25T01:32:47;8.00;99.90
25450;DHT22;13371;52.080;5.624;2024-03-25T01:35:14;8.00;99.90
25450;DHT22;13371;52.080;5.624;2024-03-25T01:37:41;7.90;99.90
25450;DHT22;13371;52.080;5.624;2024-03-25T01:40:08;8.00;99.90
25450;DHT22;13371;52.080;5.624;2024-03-25T01:42:37;8.00;99.90
25450;DHT22;13371;52.080;5.624;2024-03-25T01:45:03;7.90;99.90
25450;DHT22;13371;52.080;5.624;2024-03-25T01:47:30;7.90;99.90
25450;DHT22;13371;52.080;5.624;2024-03-25T01:49:59;7.80;99.90
25450;DHT22;13371;52.080;5.624;2024-03-25T01:52:25;7.60;99.90
25450;DHT22;13371;52.080;5.624;2024-03-25T01:54:52;7.70;99.90
25450;DHT22;13371;52.080;5.624;2024-03-25T01:57:18;7.50;99.90
25450;DHT22;13371;52.080;5.624;2024-03-25T01:59:44;7.50;99.90
25450;DHT22;13371;52.080;5.624;2024-03-25T02:02:11;7.50;99.90
25450;DHT22;13371;52.080;5.624;2024-03-25T02:04:38;7.50;99.90
25450;DHT22;13371;52.080;5.624;2024-03-25T02:07:06;7.60;99.90
25450;DHT22;13371;52.080;5.624;2024-03-25T02:09:33;7.50;99.90
25450;DHT22;13371;52.080;5.624;2024-03-25T02:11:59;7.40;99.90
25450;DHT22;13371;52.080;5.624;2024-03-25T02:14:24;7.50;99.90
25450;DHT22;13371;52.080;5.624;2024-03-25T02:16:50;7.50;99.90
25450;DHT22;13371;52.080;5.624;2024-03-25T02:19:16;7.50;99.90
25450;DHT22;13371;52.080;5.624;2024-03-25T02:21:42;7.30;99.90
25450;DHT22;13371;52.080;5.624;2024-03-25T02:24:10;7.40;99.90
25450;DHT22;13371;52.080;5.624;2024-03-25T02:26:35;7.30;99.90
25450;DHT22;13371;52.080;5.624;2024-03-25T02:29:02;7.30;99.90
25450;DHT22;13371;52.080;5.624;2024-03-25T02:31:27;7.30;99.90
25450;DHT22;13371;52.080;5.624;2024-03-25T02:33:53;7.30;99.90
25450;DHT22;13371;52.080;5.624;2024-03-25T02:36:19;7.30;99.90
25450;DHT22;13371;52.080;5.624;2024-03-25T02:38:44;7.40;99.90
25450;DHT22;13371;52.080;5.624;2024-03-25T02:41:10;7.40;99.90
25450;DHT22;13371;52.080;5.624;2024-03-25T02:43:35;7.30;99.90
25450;DHT22;13371;52.080;5.624;2024-03-25T02:46:01;7.20;99.90
25450;DHT22;13371;52.080;5.624;2024-03-25T02:48:27;7.20;99.90
25450;DHT22;13371;52.080;5.624;2024-03-25T02:50:52;7.20;99.90
25450;DHT22;13371;52.080;5.624;2024-03-25T02:53:18;7.20;99.90
25450;DHT22;13371;52.080;5.624;2024-03-25T02:55:43;7.00;99.90
25450;DHT22;13371;52.080;5.624;2024-03-25T02:58:09;7.00;99.90
25450;DHT22;13371;52.080;5.624;2024-03-25T03:00:34;7.00;99.90
25450;DHT22;13371;52.080;5.624;2024-03-25T03:03:00;7.20;99.90
25450;DHT22;13371;52.080;5.624;2024-03-25T03:05:25;7.40;99.90
25450;DHT22;13371;52.080;5.624;2024-03-25T03:07:51;7.50;99.90
25450;DHT22;13371;52.080;5.624;2024-03-25T03:10:16;7.40;99.90
25450;DHT22;13371;52.080;5.624;2024-03-25T03:12:42;7.50;99.90
25450;DHT22;13371;52.080;5.624;2024-03-25T03:15:08;7.70;99.90
25450;DHT22;13371;52.080;5.624;2024-03-25T03:17:33;7.90;99.90
25450;DHT22;13371;52.080;5.624;2024-03-25T03:19:59;7.80;99.90
25450;DHT22;13371;52.080;5.624;2024-03-25T03:22:25;7.90;99.90
25450;DHT22;13371;52.080;5.624;2024-03-25T03:24:50;8.00;99.90
25450;DHT22;13371;52.080;5.624;2024-03-25T03:27:16;8.00;99.90
25450;DHT22;13371;52.080;5.624;2024-03-25T03:30:05;8.10;99.90
25450;DHT22;13371;52.080;5.624;2024-03-25T03:32:41;8.10;99.90
25450;DHT22;13371;52.080;5.624;2024-03-25T03:35:09;7.90;99.90
25450;DHT22;13371;52.080;5.624;2024-03-25T03:37:35;8.00;99.90
25450;DHT22;13371;52.080;5.624;2024-03-25T03:40:01;8.00;99.90
25450;DHT22;13371;52.080;5.624;2024-03-25T03:42:26;7.80;99.90
25450;DHT22;13371;52.080;5.624;2024-03-25T03:44:52;7.80;99.90
25450;DHT22;13371;52.080;5.624;2024-03-25T03:47:17;7.60;99.90
25450;DHT22;13371;52.080;5.624;2024-03-25T03:49:43;7.60;99.90
25450;DHT22;13371;52.080;5.624;2024-03-25T03:52:08;7.30;99.90
25450;DHT22;13371;52.080;5.624;2024-03-25T03:54:34;6.80;99.90
25450;DHT22;13371;52.080;5.624;2024-03-25T03:56:59;7.20;99.90
25450;DHT22;13371;52.080;5.624;2024-03-25T03:59:26;7.10;99.90
25450;DHT22;13371;52.080;5.624;2024-03-25T04:01:51;7.20;99.90
25450;DHT22;13371;52.080;5.624;2024-03-25T04:04:17;7.40;99.90
25450;DHT22;13371;52.080;5.624;2024-03-25T04:06:42;7.40;99.90
25450;DHT22;13371;52.080;5.624;2024-03-25T04:09:08;7.50;99.90
25450;DHT22;13371;52.080;5.624;2024-03-25T04:11:38;7.50;99.90
25450;DHT22;13371;52.080;5.624;2024-03-25T04:14:03;7.40;99.90
25450;DHT22;13371;52.080;5.624;2024-03-25T04:16:29;7.30;99.90
25450;DHT22;13371;52.080;5.624;2024-03-25T04:18:56;7.20;99.90
25450;DHT22;13371;52.080;5.624;2024-03-25T04:21:22;6.70;99.90
25450;DHT22;13371;52.080;5.624;2024-03-25T04:23:47;6.60;99.90
25450;DHT22;13371;52.080;5.624;2024-03-25T04:26:17;6.70;99.90
25450;DHT22;13371;52.080;5.624;2024-03-25T04:28:43;6.90;99.90
25450;DHT22;13371;52.080;5.624;2024-03-25T04:31:09;6.70;99.90
25450;DHT22;13371;52.080;5.624;2024-03-25T04:33:35;6.80;99.90
25450;DHT22;13371;52.080;5.624;2024-03-25T04:36:00;6.80;99.90
25450;DHT22;13371;52.080;5.624;2024-03-25T04:38:26;6.90;99.90
25450;DHT22;13371;52.080;5.624;2024-03-25T04:40:52;6.50;99.90
25450;DHT22;13371;52.080;5.624;2024-03-25T04:43:17;6.70;99.90
25450;DHT22;13371;52.080;5.624;2024-03-25T04:45:43;6.60;99.90
25450;DHT22;13371;52.080;5.624;2024-03-25T04:48:09;6.70;99.90
25450;DHT22;13371;52.080;5.624;2024-03-25T04:50:35;6.90;99.90
25450;DHT22;13371;52.080;5.624;2024-03-25T04:53:01;6.80;99.90
25450;DHT22;13371;52.080;5.624;2024-03-25T04:55:26;6.50;99.90
25450;DHT22;13371;52.080;5.624;2024-03-25T04:57:52;6.10;99.90
25450;DHT22;13371;52.080;5.624;2024-03-25T05:00:18;6.20;99.90
25450;DHT22;13371;52.080;5.624;2024-03-25T05:02:43;6.40;99.90
25450;DHT22;13371;52.080;5.624;2024-03-25T05:05:09;6.30;99.90
25450;DHT22;13371;52.080;5.624;2024-03-25T05:07:35;6.30;99.90
25450;DHT22;13371;52.080;5.624;2024-03-25T05:10:01;6.40;99.90
25450;DHT22;13371;52.080;5.624;2024-03-25T05:12:26;6.30;99.90
25450;DHT22;13371;52.080;5.624;2024-03-25T05:14:56;6.50;99.90
25450;DHT22;13371;52.080;5.624;2024-03-25T05:17:21;6.50;99.90
25450;DHT22;13371;52.080;5.624;2024-03-25T05:19:47;6.50;99.90
25450;DHT22;13371;52.080;5.624;2024-03-25T05:22:13;6.50;99.90
25450;DHT22;13371;52.080;5.624;2024-03-25T05:24:38;6.60;99.90
25450;DHT22;13371;52.080;5.624;2024-03-25T05:27:04;6.50;99.90
25450;DHT22;13371;52.080;5.624;2024-03-25T05:29:30;6.20;99.90
25450;DHT22;13371;52.080;5.624;2024-03-25T05:32:00;6.30;99.90
25450;DHT22;13371;52.080;5.624;2024-03-25T05:34:26;6.30;99.90
25450;DHT22;13371;52.080;5.624;2024-03-25T05:36:52;6.30;99.90
25450;DHT22;13371;52.080;5.624;2024-03-25T05:39:18;6.10;99.90
25450;DHT22;13371;52.080;5.624;2024-03-25T05:41:44;6.20;99.90
25450;DHT22;13371;52.080;5.624;2024-03-25T05:44:09;6.40;99.90
25450;DHT22;13371;52.080;5.624;2024-03-25T05:46:35;6.50;99.90
25450;DHT22;13371;52.080;5.624;2024-03-25T05:49:04;6.50;99.90
25450;DHT22;13371;52.080;5.624;2024-03-25T05:51:30;6.40;99.90
25450;DHT22;13371;52.080;5.624;2024-03-25T05:53:56;6.10;99.90
25450;DHT22;13371;52.080;5.624;2024-03-25T05:56:22;5.90;99.90
25450;DHT22;13371;52.080;5.624;2024-03-25T05:58:47;6.10;99.90
25450;DHT22;13371;52.080;5.624;2024-03-25T06:01:13;6.20;99.90
25450;DHT22;13371;52.080;5.624;2024-03-25T06:03:39;6.20;99.90
25450;DHT22;13371;52.080;5.624;2024-03-25T06:06:04;6.20;99.90
25450;DHT22;13371;52.080;5.624;2024-03-25T06:08:30;6.10;99.90
25450;DHT22;13371;52.080;5.624;2024-03-25T06:11:01;6.10;99.90
25450;DHT22;13371;52.080;5.624;2024-03-25T06:13:27;6.20;99.90
25450;DHT22;13371;52.080;5.624;2024-03-25T06:15:52;6.20;99.90
25450;DHT22;13371;52.080;5.624;2024-03-25T06:18:18;6.10;99.90
25450;DHT22;13371;52.080;5.624;2024-03-25T06:20:43;6.20;99.90
25450;DHT22;13371;52.080;5.624;2024-03-25T06:23:09;6.30;99.90
25450;DHT22;13371;52.080;5.624;2024-03-25T06:25:34;6.20;99.90
25450;DHT22;13371;52.080;5.624;2024-03-25T06:28:01;6.30;99.90
25450;DHT22;13371;52.080;5.624;2024-03-25T06:30:26;6.50;99.90
25450;DHT22;13371;52.080;5.624;2024-03-25T06:33:13;6.50;99.90
25450;DHT22;13371;52.080;5.624;2024-03-25T06:35:57;6.60;99.90
25450;DHT22;13371;52.080;5.624;2024-03-25T06:38:23;6.60;99.90
25450;DHT22;13371;52.080;5.624;2024-03-25T06:40:49;6.60;99.90
25450;DHT22;13371;52.080;5.624;2024-03-25T06:43:16;6.30;99.90
25450;DHT22;13371;52.080;5.624;2024-03-25T06:45:44;6.50;99.90
25450;DHT22;13371;52.080;5.624;2024-03-25T06:48:09;6.60;99.90
25450;DHT22;13371;52.080;5.624;2024-03-25T06:50:35;6.50;99.90
25450;DHT22;13371;52.080;5.624;2024-03-25T06:53:02;6.30;99.90
25450;DHT22;13371;52.080;5.624;2024-03-25T06:55:27;6.60;99.90
25450;DHT22;13371;52.080;5.624;2024-03-25T06:57:53;6.80;99.90
25450;DHT22;13371;52.080;5.624;2024-03-25T07:00:19;6.90;99.90
25450;DHT22;13371;52.080;5.624;2024-03-25T07:02:48;7.00;99.90
25450;DHT22;13371;52.080;5.624;2024-03-25T07:05:13;6.80;99.90
25450;DHT22;13371;52.080;5.624;2024-03-25T07:07:39;7.10;99.90
25450;DHT22;13371;52.080;5.624;2024-03-25T07:10:05;7.20;99.90
25450;DHT22;13371;52.080;5.624;2024-03-25T07:12:31;7.50;99.90
25450;DHT22;13371;52.080;5.624;2024-03-25T07:14:56;7.50;99.90
25450;DHT22;13371;52.080;5.624;2024-03-25T07:17:22;7.50;99.90
25450;DHT22;13371;52.080;5.624;2024-03-25T07:19:48;7.70;99.90
25450;DHT22;13371;52.080;5.624;2024-03-25T07:22:13;7.70;99.90
25450;DHT22;13371;52.080;5.624;2024-03-25T07:24:39;8.00;99.90
25450;DHT22;13371;52.080;5.624;2024-03-25T07:27:05;8.20;99.90
25450;DHT22;13371;52.080;5.624;2024-03-25T07:29:31;8.40;99.90
25450;DHT22;13371;52.080;5.624;2024-03-25T07:31:56;8.30;99.90
25450;DHT22;13371;52.080;5.624;2024-03-25T07:34:22;8.30;99.90
25450;DHT22;13371;52.080;5.624;2024-03-25T07:36:47;8.50;99.90
25450;DHT22;13371;52.080;5.624;2024-03-25T07:39:14;8.60;99.90
25450;DHT22;13371;52.080;5.624;2024-03-25T07:41:40;8.90;99.90
25450;DHT22;13371;52.080;5.624;2024-03-25T07:44:05;8.90;99.90
25450;DHT22;13371;52.080;5.624;2024-03-25T07:46:31;9.10;99.90
25450;DHT22;13371;52.080;5.624;2024-03-25T07:48:57;9.30;99.90
25450;DHT22;13371;52.080;5.624;2024-03-25T07:51:23;9.50;99.90
25450;DHT22;13371;52.080;5.624;2024-03-25T07:53:48;9.80;99.90
25450;DHT22;13371;52.080;5.624;2024-03-25T07:56:17;9.60;99.90
25450;DHT22;13371;52.080;5.624;2024-03-25T07:58:43;9.80;99.90
25450;DHT22;13371;52.080;5.624;2024-03-25T08:01:08;10.10;99.90
25450;DHT22;13371;52.080;5.624;2024-03-25T08:03:34;10.50;99.90
25450;DHT22;13371;52.080;5.624;2024-03-25T08:06:00;10.10;99.90
25450;DHT22;13371;52.080;5.624;2024-03-25T08:08:26;10.50;99.90
25450;DHT22;13371;52.080;5.624;2024-03-25T08:10:51;10.50;99.90
25450;DHT22;13371;52.080;5.624;2024-03-25T08:13:18;10.50;99.90
25450;DHT22;13371;52.080;5.624;2024-03-25T08:15:45;11.10;99.90
25450;DHT22;13371;52.080;5.624;2024-03-25T08:18:11;10.90;99.90
25450;DHT22;13371;52.080;5.624;2024-03-25T08:20:37;11.20;99.90
25450;DHT22;13371;52.080;5.624;2024-03-25T08:23:02;11.00;99.90
25450;DHT22;13371;52.080;5.624;2024-03-25T08:25:28;11.00;99.90
25450;DHT22;13371;52.080;5.624;2024-03-25T08:27:54;11.10;99.90
25450;DHT22;13371;52.080;5.624;2024-03-25T08:30:19;11.20;99.90
25450;DHT22;13371;52.080;5.624;2024-03-25T08:32:45;11.10;99.90
25450;DHT22;13371;52.080;5.624;2024-03-25T08:35:10;11.70;99.90
25450;DHT22;13371;52.080;5.624;2024-03-25T08:37:36;11.70;99.90
25450;DHT22;13371;52.080;5.624;2024-03-25T08:40:02;11.60;99.90
25450;DHT22;13371;52.080;5.624;2024-03-25T08:42:29;11.90;99.90
25450;DHT22;13371;52.080;5.624;2024-03-25T08:44:55;12.10;99.90
25450;DHT22;13371;52.080;5.624;2024-03-25T08:47:20;11.90;99.90
25450;DHT22;13371;52.080;5.624;2024-03-25T08:49:46;12.50;99.90
25450;DHT22;13371;52.080;5.624;2024-03-25T08:52:11;12.80;99.90
25450;DHT22;13371;52.080;5.624;2024-03-25T08:54:37;13.20;99.90
25450;DHT22;13371;52.080;5.624;2024-03-25T08:57:03;13.20;99.90
25450;DHT22;13371;52.080;5.624;2024-03-25T08:59:29;13.50;99.90
25450;DHT22;13371;52.080;5.624;2024-03-25T09:01:54;13.70;99.90
25450;DHT22;13371;52.080;5.624;2024-03-25T09:04:20;13.30;99.80
25450;DHT22;13371;52.080;5.624;2024-03-25T09:06:45;13.20;99.70
25450;DHT22;13371;52.080;5.624;2024-03-25T09:09:11;12.40;99.10
25450;DHT22;13371;52.080;5.624;2024-03-25T09:11:55;12.00;99.90
25450;DHT22;13371;52.080;5.624;2024-03-25T09:14:20;11.80;99.90
25450;DHT22;13371;52.080;5.624;2024-03-25T09:16:46;12.10;99.90
25450;DHT22;13371;52.080;5.624;2024-03-25T09:19:11;12.00;99.90
25450;DHT22;13371;52.080;5.624;2024-03-25T09:21:37;12.10;99.90
25450;DHT22;13371;52.080;5.624;2024-03-25T09:24:03;12.20;99.90
25450;DHT22;13371;52.080;5.624;2024-03-25T09:26:28;12.10;99.90
25450;DHT22;13371;52.080;5.624;2024-03-25T09:28:54;12.30;99.90
25450;DHT22;13371;52.080;5.624;2024-03-25T09:31:20;12.00;99.90
25450;DHT22;13371;52.080;5.624;2024-03-25T09:33:45;12.30;99.90
25450;DHT22;13371;52.080;5.624;2024-03-25T09:36:11;12.50;99.90
25450;DHT22;13371;52.080;5.624;2024-03-25T09:38:36;12.20;99.90
25450;DHT22;13371;52.080;5.624;2024-03-25T09:41:02;12.50;99.90
25450;DHT22;13371;52.080;5.624;2024-03-25T09:43:43;12.60;99.90
25450;DHT22;13371;52.080;5.624;2024-03-25T09:46:09;13.10;99.90
25450;DHT22;13371;52.080;5.624;2024-03-25T09:48:36;12.70;99.90
25450;DHT22;13371;52.080;5.624;2024-03-25T09:51:02;12.90;99.40
25450;DHT22;13371;52.080;5.624;2024-03-25T09:53:28;12.80;99.90
25450;DHT22;13371;52.080;5.624;2024-03-25T09:55:56;13.30;99.90
25450;DHT22;13371;52.080;5.624;2024-03-25T09:58:22;13.10;97.50
25450;DHT22;13371;52.080;5.624;2024-03-25T10:00:49;13.50;98.60
25450;DHT22;13371;52.080;5.624;2024-03-25T10:03:15;13.20;98.60
25450;DHT22;13371;52.080;5.624;2024-03-25T10:05:43;12.90;99.60
25450;DHT22;13371;52.080;5.624;2024-03-25T10:08:09;12.40;99.10
25450;DHT22;13371;52.080;5.624;2024-03-25T10:10:35;13.00;99.90
25450;DHT22;13371;52.080;5.624;2024-03-25T10:13:03;12.70;98.00
25450;DHT22;13371;52.080;5.624;2024-03-25T10:15:28;12.10;99.80
25450;DHT22;13371;52.080;5.624;2024-03-25T10:17:54;12.10;99.90
25450;DHT22;13371;52.080;5.624;2024-03-25T10:20:20;12.70;99.90
25450;DHT22;13371;52.080;5.624;2024-03-25T10:22:46;13.00;99.90
25450;DHT22;13371;52.080;5.624;2024-03-25T10:25:26;13.20;99.70
25450;DHT22;13371;52.080;5.624;2024-03-25T10:28:02;13.50;99.80
25450;DHT22;13371;52.080;5.624;2024-03-25T10:30:28;13.00;97.30
25450;DHT22;13371;52.080;5.624;2024-03-25T10:33:06;13.00;98.60
25450;DHT22;13371;52.080;5.624;2024-03-25T10:35:35;12.90;98.60
25450;DHT22;13371;52.080;5.624;2024-03-25T10:38:06;13.40;99.90
25450;DHT22;13371;52.080;5.624;2024-03-25T10:40:37;13.90;97.50
25450;DHT22;13371;52.080;5.624;2024-03-25T10:43:07;14.00;96.30
25450;DHT22;13371;52.080;5.624;2024-03-25T10:45:40;13.90;96.60
25450;DHT22;13371;52.080;5.624;2024-03-25T10:48:14;14.10;96.60
25450;DHT22;13371;52.080;5.624;2024-03-25T10:50:43;14.00;97.70
25450;DHT22;13371;52.080;5.624;2024-03-25T10:53:10;14.10;97.40
25450;DHT22;13371;52.080;5.624;2024-03-25T10:55:37;13.80;96.50
25450;DHT22;13371;52.080;5.624;2024-03-25T10:58:04;14.00;95.60
25450;DHT22;13371;52.080;5.624;2024-03-25T11:00:30;14.30;96.00
25450;DHT22;13371;52.080;5.624;2024-03-25T11:02:55;14.70;95.40
25450;DHT22;13371;52.080;5.624;2024-03-25T11:05:22;14.80;94.50
25450;DHT22;13371;52.080;5.624;2024-03-25T11:07:48;15.30;95.10
25450;DHT22;13371;52.080;5.624;2024-03-25T11:10:13;15.10;92.10
25450;DHT22;13371;52.080;5.624;2024-03-25T11:12:41;15.10;93.70
25450;DHT22;13371;52.080;5.624;2024-03-25T11:15:08;15.10;92.30
25450;DHT22;13371;52.080;5.624;2024-03-25T11:17:34;14.80;91.60
25450;DHT22;13371;52.080;5.624;2024-03-25T11:20:14;15.10;93.20
25450;DHT22;13371;52.080;5.624;2024-03-25T11:22:48;14.80;92.80
25450;DHT22;13371;52.080;5.624;2024-03-25T11:25:14;14.50;92.90
25450;DHT22;13371;52.080;5.624;2024-03-25T11:27:46;15.00;93.10
25450;DHT22;13371;52.080;5.624;2024-03-25T11:30:12;14.30;91.80
25450;DHT22;13371;52.080;5.624;2024-03-25T11:32:52;14.40;91.50
25450;DHT22;13371;52.080;5.624;2024-03-25T11:35:18;14.30;92.80
25450;DHT22;13371;52.080;5.624;2024-03-25T11:37:44;14.50;92.70
25450;DHT22;13371;52.080;5.624;2024-03-25T11:40:10;14.20;91.90
25450;DHT22;13371;52.080;5.624;2024-03-25T11:42:38;14.30;93.30
25450;DHT22;13371;52.080;5.624;2024-03-25T11:45:15;14.20;91.60
25450;DHT22;13371;52.080;5.624;2024-03-25T11:47:45;14.40;92.30
25450;DHT22;13371;52.080;5.624;2024-03-25T11:50:21;14.60;92.10
25450;DHT22;13371;52.080;5.624;2024-03-25T11:52:47;14.60;92.10
25450;DHT22;13371;52.080;5.624;2024-03-25T11:55:17;14.70;90.20
25450;DHT22;13371;52.080;5.624;2024-03-25T11:57:43;15.10;91.30
25450;DHT22;13371;52.080;5.624;2024-03-25T12:00:09;15.50;91.40
25450;DHT22;13371;52.080;5.624;2024-03-25T12:02:42;15.90;92.00
25450;DHT22;13371;52.080;5.624;2024-03-25T12:05:08;15.80;85.30
25450;DHT22;13371;52.080;5.624;2024-03-25T12:07:34;15.70;90.00
25450;DHT22;13371;52.080;5.624;2024-03-25T12:10:01;15.30;86.20
25450;DHT22;13371;52.080;5.624;2024-03-25T12:12:45;15.10;88.10
25450;DHT22;13371;52.080;5.624;2024-03-25T12:15:11;15.10;88.50
25450;DHT22;13371;52.080;5.624;2024-03-25T12:17:36;15.30;88.50
25450;DHT22;13371;52.080;5.624;2024-03-25T12:20:07;15.00;87.20
25450;DHT22;13371;52.080;5.624;2024-03-25T12:22:35;15.10;88.70
25450;DHT22;13371;52.080;5.624;2024-03-25T12:25:01;15.20;86.20
25450;DHT22;13371;52.080;5.624;2024-03-25T12:27:28;15.20;86.50
25450;DHT22;13371;52.080;5.624;2024-03-25T12:30:01;15.00;88.00
25450;DHT22;13371;52.080;5.624;2024-03-25T12:32:46;15.30;85.60
25450;DHT22;13371;52.080;5.624;2024-03-25T12:35:15;15.60;87.10
25450;DHT22;13371;52.080;5.624;2024-03-25T12:37:43;15.50;88.20
25450;DHT22;13371;52.080;5.624;2024-03-25T12:40:28;15.70;84.10
25450;DHT22;13371;52.080;5.624;2024-03-25T12:42:55;15.90;82.00
25450;DHT22;13371;52.080;5.624;2024-03-25T12:45:21;15.70;81.80
25450;DHT22;13371;52.080;5.624;2024-03-25T12:47:49;15.70;83.00
25450;DHT22;13371;52.080;5.624;2024-03-25T12:50:14;15.80;85.90
25450;DHT22;13371;52.080;5.624;2024-03-25T12:52:40;16.20;83.70
25450;DHT22;13371;52.080;5.624;2024-03-25T12:55:05;16.70;83.80
25450;DHT22;13371;52.080;5.624;2024-03-25T12:57:31;16.70;81.60
25450;DHT22;13371;52.080;5.624;2024-03-25T12:59:57;16.60;76.60
25450;DHT22;13371;52.080;5.624;2024-03-25T13:02:22;16.50;77.20
25450;DHT22;13371;52.080;5.624;2024-03-25T13:04:48;16.10;79.10
25450;DHT22;13371;52.080;5.624;2024-03-25T13:07:14;16.70;78.30
25450;DHT22;13371;52.080;5.624;2024-03-25T13:09:39;16.50;74.50
25450;DHT22;13371;52.080;5.624;2024-03-25T13:12:05;15.70;76.60
25450;DHT22;13371;52.080;5.624;2024-03-25T13:14:31;16.00;76.30
25450;DHT22;13371;52.080;5.624;2024-03-25T13:16:56;15.80;77.80
25450;DHT22;13371;52.080;5.624;2024-03-25T13:19:22;15.80;75.20
25450;DHT22;13371;52.080;5.624;2024-03-25T13:21:47;15.30;76.10
25450;DHT22;13371;52.080;5.624;2024-03-25T13:24:14;15.10;77.80
25450;DHT22;13371;52.080;5.624;2024-03-25T13:26:39;15.30;82.20
25450;DHT22;13371;52.080;5.624;2024-03-25T13:29:05;15.20;77.00
25450;DHT22;13371;52.080;5.624;2024-03-25T13:31:33;15.10;80.30
25450;DHT22;13371;52.080;5.624;2024-03-25T13:33:58;15.90;81.70
25450;DHT22;13371;52.080;5.624;2024-03-25T13:36:24;16.10;76.70
25450;DHT22;13371;52.080;5.624;2024-03-25T13:38:49;16.40;80.10
25450;DHT22;13371;52.080;5.624;2024-03-25T13:41:15;16.30;78.30
25450;DHT22;13371;52.080;5.624;2024-03-25T13:43:43;16.40;79.40
25450;DHT22;13371;52.080;5.624;2024-03-25T13:46:09;15.80;73.30
25450;DHT22;13371;52.080;5.624;2024-03-25T13:48:34;16.00;78.40
25450;DHT22;13371;52.080;5.624;2024-03-25T13:51:00;16.00;74.80
25450;DHT22;13371;52.080;5.624;2024-03-25T13:53:26;16.40;76.10
25450;DHT22;13371;52.080;5.624;2024-03-25T13:55:52;16.40;76.80
25450;DHT22;13371;52.080;5.624;2024-03-25T13:58:17;15.80;72.80
25450;DHT22;13371;52.080;5.624;2024-03-25T14:00:43;15.90;72.30
25450;DHT22;13371;52.080;5.624;2024-03-25T14:03:08;15.90;73.70
25450;DHT22;13371;52.080;5.624;2024-03-25T14:05:34;15.40;72.30
25450;DHT22;13371;52.080;5.624;2024-03-25T14:08:00;15.60;73.30
25450;DHT22;13371;52.080;5.624;2024-03-25T14:10:25;15.90;73.40
25450;DHT22;13371;52.080;5.624;2024-03-25T14:12:51;15.70;71.30
25450;DHT22;13371;52.080;5.624;2024-03-25T14:15:16;14.70;69.50
25450;DHT22;13371;52.080;5.624;2024-03-25T14:17:42;14.60;78.70
25450;DHT22;13371;52.080;5.624;2024-03-25T14:20:08;15.40;76.70
25450;DHT22;13371;52.080;5.624;2024-03-25T14:22:34;15.10;75.80
25450;DHT22;13371;52.080;5.624;2024-03-25T14:25:00;15.60;72.00
25450;DHT22;13371;52.080;5.624;2024-03-25T14:27:26;16.60;75.40
25450;DHT22;13371;52.080;5.624;2024-03-25T14:29:52;16.70;74.30
25450;DHT22;13371;52.080;5.624;2024-03-25T14:32:22;15.90;69.30
25450;DHT22;13371;52.080;5.624;2024-03-25T14:34:48;16.00;70.20
25450;DHT22;13371;52.080;5.624;2024-03-25T14:37:14;15.40;74.90
25450;DHT22;13371;52.080;5.624;2024-03-25T14:39:39;14.90;75.60
25450;DHT22;13371;52.080;5.624;2024-03-25T14:42:07;15.00;76.80
25450;DHT22;13371;52.080;5.624;2024-03-25T14:44:33;15.50;76.00
25450;DHT22;13371;52.080;5.624;2024-03-25T14:46:58;15.40;76.00
25450;DHT22;13371;52.080;5.624;2024-03-25T14:49:24;15.70;75.50
25450;DHT22;13371;52.080;5.624;2024-03-25T14:51:50;15.60;73.40
25450;DHT22;13371;52.080;5.624;2024-03-25T14:54:17;15.90;71.90
25450;DHT22;13371;52.080;5.624;2024-03-25T14:56:43;15.90;72.70
25450;DHT22;13371;52.080;5.624;2024-03-25T14:59:09;15.90;69.10
25450;DHT22;13371;52.080;5.624;2024-03-25T15:01:34;14.80;71.40
25450;DHT22;13371;52.080;5.624;2024-03-25T15:04:02;15.30;73.30
25450;DHT22;13371;52.080;5.624;2024-03-25T15:06:28;14.70;72.60
25450;DHT22;13371;52.080;5.624;2024-03-25T15:08:53;14.60;71.80
25450;DHT22;13371;52.080;5.624;2024-03-25T15:11:19;14.50;74.80
25450;DHT22;13371;52.080;5.624;2024-03-25T15:13:45;14.50;72.70
25450;DHT22;13371;52.080;5.624;2024-03-25T15:16:11;14.60;75.30
25450;DHT22;13371;52.080;5.624;2024-03-25T15:18:37;15.00;74.00
25450;DHT22;13371;52.080;5.624;2024-03-25T15:21:04;14.30;74.00
25450;DHT22;13371;52.080;5.624;2024-03-25T15:23:31;14.20;74.50
25450;DHT22;13371;52.080;5.624;2024-03-25T15:25:57;14.30;75.60
25450;DHT22;13371;52.080;5.624;2024-03-25T15:28:24;14.00;74.90
25450;DHT22;13371;52.080;5.624;2024-03-25T15:30:50;13.90;75.20
25450;DHT22;13371;52.080;5.624;2024-03-25T15:33:16;14.40;75.50